Charlottesville, VA (22904)

2:38 AM EDT on October 01, 2016 (GMT -0400)
Charlottesville 2W: McCormick Observatory | | Change Station

Elev 866 ft 38.03 °N, 78.52 °W | Updated 5 seconds ago

Light Rain
Light Rain Mist
60.3 °F
Feels Like 60.3 °F
N
1.7
Wind Variable Wind from North
Gusts 3.0 mph

Today
High -- | Low -- °F
--% Chance of Precip.
Yesterday
High -- | Low -- °F
Precip. -- in
Pressure 30.07 in
Visibility 6.0 miles
Clouds Overcast 400 ft
Dew Point 59 °F
Humidity 97%
Rainfall 0.85 in
Snow Depth Not available.
7:09 AM 6:56 PM
New Moon, 0% visible
METAR KCHO 010553Z 02008KT 6SM -RA BR OVC004 17/16 A3008 RMK AO2 SLP182 P0000 60012 T01720161 10172 20167 55003
Pressure 30.07 in
Visibility 6.0 miles
Clouds Overcast 400 ft
Dew Point 59 °F
Humidity 97%
Rainfall 0.85 in
Snow Depth Not available.
7:09 AM 6:56 PM
New Moon, 0% visible
METAR KCHO 010553Z 02008KT 6SM -RA BR OVC004 17/16 A3008 RMK AO2 SLP182 P0000 60012 T01720161 10172 20167 55003

10-Day Weather Forecast

Almanac

Astronomy

Oct. 01, 2016 Rise Set
Actual Time
Civil Twilight
Nautical Twilight
Astronomical Twilight
Moon
Length of Visible Light
Length of Day
Tomorrow will be .
, % of the Moon is Illuminated

Today's Extremes

State Highs State Lows

Community

WunderPhotos

Upload Photos

1,942,898 photos uploaded!

WunderBlog® & News

Nearby

Air Quality

  Air Quality AQ Index Pollutant
Not available.

Snow Depth

Station Depth Elevation

Earthquake Activity

City Distance Mag. Time & Date
Minimum magnitude displayed is 2.5.

Coastal Water Temperatures

Place Temperature

Stations

Nearby Weather Stations

Station Location Temp. Windchill Dew Point Humidity Wind Precip. Elev Updated Type
                   

Watches & Warnings

There are currently no watches in effect.